Time;durP1;ratioP1;P1;durP2;ratioP2;P2;SDS_P1;SDS_P2;PMS_P1;PMS_P2;Temp;Humidity;BMP_temperature;BMP_pressure;BME280_temperature;BME280_humidity;BME280_pressure;Samples;Min_cycle;Max_cycle;Signal;HPM_P1;HPM_P2
2021/08/26 00:06:47;;;;;;;7.07;3.03;;;16.60;99.90;;;;;;4992466;28;20195;-81
2021/08/26 00:09:17;;;;;;;10.68;4.25;;;16.60;99.90;;;;;;4999942;28;20226;-84
2021/08/26 00:11:44;;;;;;;10.07;3.83;;;16.60;99.90;;;;;;5012687;28;20663;-87
2021/08/26 00:14:12;;;;;;;13.13;4.15;;;16.60;99.90;;;;;;4995567;28;20216;-83
2021/08/26 00:16:42;;;;;;;12.85;3.95;;;16.60;99.90;;;;;;4994021;28;20615;-82
2021/08/26 00:19:09;;;;;;;11.60;4.40;;;16.60;99.90;;;;;;4993368;28;20215;-85
2021/08/26 00:21:36;;;;;;;10.07;4.27;;;16.60;99.90;;;;;;4992042;28;20206;-86
2021/08/26 00:24:03;;;;;;;13.83;4.13;;;16.60;99.90;;;;;;4990865;28;20215;-80
2021/08/26 00:26:32;;;;;;;11.23;3.72;;;16.60;99.90;;;;;;4989204;28;20868;-80
2021/08/26 00:28:58;;;;;;;10.37;3.67;;;16.60;99.90;;;;;;4990434;28;20228;-81
2021/08/26 00:31:25;;;;;;;14.18;4.22;;;16.50;99.90;;;;;;4991156;28;20219;-78
2021/08/26 00:33:53;;;;;;;18.95;4.63;;;16.50;99.90;;;;;;4990626;28;20208;-79
2021/08/26 00:36:20;;;;;;;13.52;4.57;;;16.60;99.90;;;;;;4991377;28;20196;-82
2021/08/26 00:38:47;;;;;;;16.07;4.73;;;16.60;99.90;;;;;;4990591;28;20223;-79
2021/08/26 00:41:18;;;;;;;9.70;3.65;;;16.50;99.90;;;;;;4992308;28;20476;-79
2021/08/26 00:43:45;;;;;;;10.43;3.83;;;16.50;99.90;;;;;;4992361;28;20674;-81
2021/08/26 00:46:12;;;;;;;15.10;3.95;;;16.50;99.90;;;;;;4992117;28;20262;-84
2021/08/26 00:48:40;;;;;;;11.27;3.90;;;16.50;99.90;;;;;;4998823;28;20693;-83
2021/08/26 00:51:08;;;;;;;11.57;4.63;;;16.60;99.90;;;;;;5011795;28;20683;-80
2021/08/26 00:53:35;;;;;;;20.53;5.10;;;16.50;99.90;;;;;;5011511;28;20898;-88
2021/08/26 00:56:02;;;;;;;17.97;5.00;;;16.50;99.90;;;;;;4996996;28;20219;-82
2021/08/26 00:58:30;;;;;;;17.40;4.47;;;16.60;99.90;;;;;;4991062;28;20204;-80
2021/08/26 01:01:03;;;;;;;18.33;4.63;;;16.60;99.90;;;;;;4995552;28;20218;-85
2021/08/26 01:03:39;;;;;;;11.47;4.90;;;16.50;99.90;;;;;;5010629;28;20218;-81
2021/08/26 01:06:14;;;;;;;10.47;4.30;;;16.50;99.90;;;;;;5010940;28;20195;-82
2021/08/26 01:08:50;;;;;;;15.30;4.93;;;16.40;99.90;;;;;;5009863;28;20219;-82
2021/08/26 01:11:18;;;;;;;13.50;4.17;;;16.40;99.90;;;;;;4989338;28;20239;-81
2021/08/26 01:13:46;;;;;;;16.50;4.30;;;16.40;99.90;;;;;;4988858;28;20845;-80
2021/08/26 01:16:14;;;;;;;14.90;4.50;;;16.40;99.90;;;;;;4989859;28;20210;-82
2021/08/26 01:18:42;;;;;;;13.07;4.00;;;16.30;99.90;;;;;;4989425;28;20211;-82
2021/08/26 01:21:11;;;;;;;11.90;4.63;;;16.30;99.90;;;;;;4994700;28;20204;-79
2021/08/26 01:23:42;;;;;;;10.10;3.80;;;16.20;99.90;;;;;;5011113;28;20604;-84
2021/08/26 01:26:14;;;;;;;12.03;3.97;;;16.20;99.90;;;;;;5002983;28;20204;-79
2021/08/26 01:28:42;;;;;;;16.88;4.28;;;16.20;99.90;;;;;;4990861;28;20219;-82
2021/08/26 01:31:10;;;;;;;13.07;4.27;;;16.30;99.90;;;;;;4992403;28;20192;-81
2021/08/26 01:33:37;;;;;;;15.63;4.13;;;16.30;99.90;;;;;;4991487;28;20512;-88
2021/08/26 01:36:05;;;;;;;13.50;3.57;;;16.30;99.90;;;;;;4990469;28;20210;-84
2021/08/26 01:38:32;;;;;;;14.40;4.13;;;16.20;99.90;;;;;;4991858;28;20211;-85
2021/08/26 01:40:59;;;;;;;11.63;3.60;;;16.20;99.90;;;;;;4992747;28;20800;-81
2021/08/26 01:43:28;;;;;;;11.50;4.00;;;16.30;99.90;;;;;;5010105;28;20231;-82
2021/08/26 01:45:56;;;;;;;14.23;3.90;;;16.30;99.90;;;;;;5010373;28;20503;-86
2021/08/26 01:48:22;;;;;;;10.67;3.77;;;16.20;99.90;;;;;;5010228;28;20234;-79
2021/08/26 01:50:50;;;;;;;14.13;4.13;;;16.30;99.90;;;;;;5009530;28;20588;-84
2021/08/26 01:53:19;;;;;;;11.53;3.83;;;16.20;99.90;;;;;;5009028;28;20231;-83
2021/08/26 01:55:46;;;;;;;14.13;3.73;;;16.30;99.90;;;;;;5001215;28;20208;-82
2021/08/26 01:58:14;;;;;;;12.07;4.13;;;16.30;99.90;;;;;;4990968;28;20480;-79
2021/08/26 02:00:43;;;;;;;9.60;3.67;;;16.20;99.90;;;;;;4990409;28;20196;-80
2021/08/26 02:03:10;;;;;;;17.80;4.17;;;16.20;99.90;;;;;;4990581;28;20208;-80
2021/08/26 02:05:37;;;;;;;10.47;3.50;;;16.30;99.90;;;;;;4990294;28;20215;-81
2021/08/26 02:08:04;;;;;;;10.83;3.17;;;16.30;99.90;;;;;;4988933;28;20211;-85
2021/08/26 02:10:31;;;;;;;10.97;3.43;;;16.30;99.90;;;;;;4989948;28;20504;-85
2021/08/26 02:12:57;;;;;;;14.73;3.20;;;16.30;99.90;;;;;;5010249;28;20889;-82
2021/08/26 02:15:24;;;;;;;12.53;3.20;;;16.30;99.90;;;;;;5010507;28;20211;-85
2021/08/26 02:17:53;;;;;;;14.13;4.80;;;16.30;99.90;;;;;;5008578;28;20780;-85
2021/08/26 02:20:19;;;;;;;14.70;3.87;;;16.30;99.90;;;;;;5005106;28;20616;-81
2021/08/26 02:22:46;;;;;;;9.37;3.67;;;16.30;99.90;;;;;;4988786;28;20215;-80
2021/08/26 02:25:13;;;;;;;11.77;3.47;;;16.30;99.90;;;;;;4988846;28;20196;-80
2021/08/26 02:27:40;;;;;;;9.77;3.17;;;16.20;99.90;;;;;;4989160;28;20208;-83
2021/08/26 02:30:09;;;;;;;16.87;4.43;;;16.20;99.90;;;;;;4989173;28;20823;-78
2021/08/26 02:32:36;;;;;;;13.33;3.00;;;16.20;99.90;;;;;;5004338;28;20210;-80
2021/08/26 02:35:05;;;;;;;14.97;3.40;;;16.20;99.90;;;;;;5009299;28;20208;-88
2021/08/26 02:37:32;;;;;;;10.83;3.27;;;16.10;99.90;;;;;;5011593;28;20206;-82
2021/08/26 02:39:59;;;;;;;8.93;3.20;;;16.20;99.90;;;;;;4996945;28;20914;-85
2021/08/26 02:42:25;;;;;;;7.63;2.77;;;16.10;99.90;;;;;;4991754;28;20826;-84
2021/08/26 02:44:52;;;;;;;11.13;2.97;;;16.10;99.90;;;;;;4990771;28;20204;-81
2021/08/26 02:47:19;;;;;;;11.03;3.07;;;16.20;99.90;;;;;;4990826;28;20198;-84
2021/08/26 02:49:46;;;;;;;9.70;2.60;;;16.20;99.90;;;;;;4989034;28;20246;-81
2021/08/26 02:52:15;;;;;;;10.17;2.93;;;16.20;99.90;;;;;;4990626;28;20218;-82
2021/08/26 02:54:41;;;;;;;11.93;3.77;;;16.30;99.90;;;;;;4989608;28;20215;-81
2021/08/26 02:57:08;;;;;;;14.27;3.20;;;16.30;99.90;;;;;;4990024;28;20212;-78
2021/08/26 02:59:35;;;;;;;7.27;2.80;;;16.30;99.90;;;;;;4993030;28;20211;-84
2021/08/26 03:02:02;;;;;;;9.80;2.57;;;16.30;99.90;;;;;;5009591;28;20203;-84
2021/08/26 03:04:29;;;;;;;11.90;2.73;;;16.30;99.90;;;;;;5008610;28;20409;-86
2021/08/26 03:06:56;;;;;;;8.67;2.50;;;16.30;99.90;;;;;;5008718;28;20708;-85
2021/08/26 03:09:24;;;;;;;11.00;3.33;;;16.30;99.90;;;;;;5010312;28;20635;-87
2021/08/26 03:11:50;;;;;;;10.30;2.60;;;16.20;99.90;;;;;;5007457;28;20199;-87
2021/08/26 03:14:17;;;;;;;6.90;2.30;;;16.20;99.90;;;;;;4990932;28;20672;-80
2021/08/26 03:16:44;;;;;;;6.80;2.00;;;16.20;99.90;;;;;;4991399;28;20200;-84
2021/08/26 03:19:11;;;;;;;11.80;2.87;;;16.20;99.90;;;;;;4990483;28;20511;-82
2021/08/26 03:21:38;;;;;;;10.93;3.07;;;16.20;99.90;;;;;;4989244;28;20215;-84
2021/08/26 03:24:06;;;;;;;9.83;2.93;;;16.20;99.90;;;;;;4989710;28;20619;-92
2021/08/26 03:26:34;;;;;;;9.47;2.97;;;16.20;99.90;;;;;;4990001;28;20837;-86
2021/08/26 03:29:01;;;;;;;9.93;3.20;;;16.20;99.90;;;;;;4988577;28;20236;-81
2021/08/26 03:31:27;;;;;;;9.57;2.47;;;16.20;99.90;;;;;;4989158;28;20215;-84
2021/08/26 03:33:54;;;;;;;8.95;2.35;;;16.20;99.90;;;;;;4989581;28;20203;-87
2021/08/26 03:36:26;;;;;;;8.40;2.77;;;16.30;99.90;;;;;;4988597;28;20207;-86
2021/08/26 03:38:53;;;;;;;14.50;2.67;;;16.20;99.90;;;;;;4988307;28;20208;-87
2021/08/26 03:41:20;;;;;;;10.43;2.80;;;16.20;99.90;;;;;;4988199;28;20259;-83
2021/08/26 03:43:48;;;;;;;10.30;3.00;;;16.20;99.90;;;;;;4987925;28;20204;-77
2021/08/26 03:46:15;;;;;;;9.77;3.00;;;16.20;99.90;;;;;;4987768;28;20196;-79
2021/08/26 03:48:41;;;;;;;9.63;2.47;;;16.20;99.90;;;;;;4987324;28;20204;-77
2021/08/26 03:51:08;;;;;;;18.77;2.70;;;16.20;99.90;;;;;;4995037;28;20235;-77
2021/08/26 03:53:35;;;;;;;9.73;2.53;;;16.20;99.90;;;;;;5005972;28;20201;-81
2021/08/26 03:56:05;;;;;;;12.50;3.20;;;16.20;99.90;;;;;;4991796;28;20204;-84
2021/08/26 03:58:32;;;;;;;11.93;3.87;;;16.20;99.90;;;;;;4993883;28;20224;-80
2021/08/26 04:01:00;;;;;;;7.77;2.63;;;16.30;99.90;;;;;;4996289;28;20921;-80
2021/08/26 04:03:27;;;;;;;12.33;2.73;;;16.30;99.90;;;;;;5009543;28;20603;-84
2021/08/26 04:05:54;;;;;;;7.67;1.93;;;16.20;99.90;;;;;;5008629;28;20219;-88
2021/08/26 04:08:20;;;;;;;9.03;2.40;;;16.20;99.90;;;;;;5009846;28;20196;-78
2021/08/26 04:10:47;;;;;;;7.80;2.67;;;16.20;99.90;;;;;;5010011;28;20231;-90
2021/08/26 04:13:14;;;;;;;9.73;3.28;;;16.20;99.90;;;;;;5010118;28;20203;-87
2021/08/26 04:15:41;;;;;;;14.23;3.77;;;16.20;99.90;;;;;;4997533;28;20463;-87
2021/08/26 04:18:09;;;;;;;12.83;2.80;;;16.10;99.90;;;;;;4990738;28;20208;-87
2021/08/26 04:20:37;;;;;;;12.53;2.83;;;16.10;99.90;;;;;;4989296;28;20196;-82
2021/08/26 04:23:05;;;;;;;17.13;3.80;;;16.10;99.90;;;;;;4991090;28;20211;-81
2021/08/26 04:25:32;;;;;;;6.73;2.40;;;16.20;99.90;;;;;;4990829;28;20753;-86
2021/08/26 04:27:59;;;;;;;8.85;2.72;;;16.20;99.90;;;;;;4989605;28;20433;-86
2021/08/26 04:30:26;;;;;;;8.50;2.63;;;16.20;99.90;;;;;;4989772;28;20232;-86
2021/08/26 04:32:52;;;;;;;10.47;2.70;;;16.10;99.90;;;;;;4989303;28;20207;-83
2021/08/26 04:35:21;;;;;;;7.93;2.17;;;16.20;99.90;;;;;;4990244;28;20211;-79
2021/08/26 04:37:47;;;;;;;9.75;2.00;;;16.20;99.90;;;;;;4988229;28;20216;-77
2021/08/26 04:40:14;;;;;;;4.93;2.22;;;16.20;99.90;;;;;;4988075;28;20204;-79
2021/08/26 04:42:41;;;;;;;7.17;2.30;;;16.20;99.90;;;;;;4990489;28;20242;-84
2021/08/26 04:45:10;;;;;;;7.18;2.00;;;16.30;99.90;;;;;;4992227;28;20204;-79
2021/08/26 04:47:37;;;;;;;6.40;2.00;;;16.20;99.90;;;;;;4992891;28;20258;-86
2021/08/26 04:50:04;;;;;;;8.17;2.50;;;16.20;99.90;;;;;;4990594;28;20228;-81
2021/08/26 04:52:32;;;;;;;9.23;2.53;;;16.20;99.90;;;;;;4990779;28;20640;-79
2021/08/26 04:54:59;;;;;;;9.57;2.50;;;16.20;99.90;;;;;;4990085;28;20200;-82
2021/08/26 04:57:25;;;;;;;8.03;2.60;;;16.20;99.90;;;;;;4989617;28;20216;-79
2021/08/26 04:59:52;;;;;;;10.00;2.20;;;16.20;99.90;;;;;;4989916;28;20498;-85
2021/08/26 05:02:19;;;;;;;5.70;2.40;;;16.20;99.90;;;;;;4990022;28;20271;-77
2021/08/26 05:04:45;;;;;;;12.13;2.63;;;16.10;99.90;;;;;;4989027;28;20201;-80
2021/08/26 05:07:12;;;;;;;11.53;3.20;;;16.10;99.90;;;;;;4988987;28;20215;-79
2021/08/26 05:09:40;;;;;;;10.90;3.28;;;16.20;99.90;;;;;;4992113;28;20242;-82
2021/08/26 05:12:08;;;;;;;9.18;2.70;;;16.20;99.90;;;;;;4989975;28;20223;-78
2021/08/26 05:14:35;;;;;;;8.40;2.72;;;16.20;99.90;;;;;;4987837;28;20214;-79
2021/08/26 05:17:02;;;;;;;11.05;2.33;;;16.20;99.90;;;;;;5004615;28;20207;-81
2021/08/26 05:19:29;;;;;;;7.90;2.38;;;16.20;99.90;;;;;;5008789;28;20203;-87
2021/08/26 05:21:55;;;;;;;6.93;2.17;;;16.20;99.90;;;;;;4996793;28;20302;-92
2021/08/26 05:24:22;;;;;;;10.03;2.57;;;16.20;99.90;;;;;;4991563;28;20213;-80
2021/08/26 05:26:52;;;;;;;6.93;2.40;;;16.20;99.90;;;;;;4989961;28;20598;-79
2021/08/26 05:29:19;;;;;;;12.37;2.93;;;16.20;99.90;;;;;;4990655;28;20651;-79
2021/08/26 05:31:46;;;;;;;7.82;2.30;;;16.30;99.90;;;;;;4990487;28;20204;-79
2021/08/26 05:34:13;;;;;;;7.07;2.10;;;16.30;99.90;;;;;;4990437;28;20208;-80
2021/08/26 05:36:39;;;;;;;8.10;2.43;;;16.30;99.90;;;;;;4991116;28;20211;-82
2021/08/26 05:39:06;;;;;;;9.53;2.43;;;16.30;99.90;;;;;;4991285;28;20208;-86
2021/08/26 05:41:33;;;;;;;6.77;2.63;;;16.30;99.90;;;;;;4989599;28;20600;-81
2021/08/26 05:44:01;;;;;;;6.43;2.38;;;16.40;99.90;;;;;;4990358;28;20247;-85
2021/08/26 05:46:28;;;;;;;7.88;2.03;;;16.40;99.90;;;;;;5010774;28;20596;-88
2021/08/26 05:48:55;;;;;;;7.60;2.25;;;16.30;99.90;;;;;;5009752;28;20211;-84
2021/08/26 05:51:21;;;;;;;11.65;2.38;;;16.40;99.90;;;;;;4992454;28;20243;-82
2021/08/26 05:53:48;;;;;;;10.13;2.80;;;16.40;99.90;;;;;;4990960;28;20204;-78
2021/08/26 05:56:15;;;;;;;16.20;3.08;;;16.50;99.90;;;;;;4991393;28;20199;-82
2021/08/26 05:58:42;;;;;;;9.02;2.30;;;16.60;99.90;;;;;;4990247;28;20203;-79
2021/08/26 06:01:10;;;;;;;11.55;2.35;;;16.50;99.90;;;;;;4990033;28;20192;-82
2021/08/26 06:03:37;;;;;;;6.63;2.30;;;16.60;99.90;;;;;;5004186;28;20619;-87
2021/08/26 06:06:03;;;;;;;7.40;2.00;;;16.60;99.90;;;;;;5009520;28;20590;-81
2021/08/26 06:08:30;;;;;;;3.17;1.67;;;16.60;99.90;;;;;;5008873;28;20681;-86
2021/08/26 06:10:57;;;;;;;5.10;1.40;;;16.50;99.90;;;;;;4988619;28;20224;-84
2021/08/26 06:13:24;;;;;;;3.53;1.20;;;16.50;99.90;;;;;;4990295;28;20207;-80
2021/08/26 06:15:51;;;;;;;6.25;1.48;;;16.50;99.90;;;;;;4989381;28;20192;-79
2021/08/26 06:18:21;;;;;;;3.37;1.30;;;16.60;99.90;;;;;;4989059;28;20665;-82
2021/08/26 06:20:48;;;;;;;6.65;1.98;;;16.60;99.90;;;;;;4986562;28;20200;-84
2021/08/26 06:23:15;;;;;;;9.82;2.25;;;16.70;99.90;;;;;;4987642;28;20204;-78
2021/08/26 06:25:42;;;;;;;6.45;2.10;;;16.70;99.90;;;;;;4987626;28;20203;-78
2021/08/26 06:28:08;;;;;;;9.20;2.13;;;16.70;99.90;;;;;;4999664;28;20207;-81
2021/08/26 06:30:35;;;;;;;7.85;2.78;;;16.70;99.90;;;;;;5006555;28;20262;-80
2021/08/26 06:33:02;;;;;;;5.30;1.88;;;16.70;99.90;;;;;;5005371;28;20697;-81
2021/08/26 06:35:30;;;;;;;9.05;2.15;;;16.60;99.90;;;;;;5008026;28;20298;-88
2021/08/26 06:37:57;;;;;;;7.87;2.23;;;16.60;99.90;;;;;;5000866;28;20604;-89
2021/08/26 06:40:24;;;;;;;7.83;2.40;;;16.50;99.90;;;;;;4987763;28;20208;-81
2021/08/26 06:42:51;;;;;;;7.43;1.80;;;16.50;99.90;;;;;;4988287;28;20251;-78
2021/08/26 06:45:18;;;;;;;7.35;2.10;;;16.50;99.90;;;;;;4988495;28;20207;-82
2021/08/26 06:47:44;;;;;;;6.00;1.33;;;16.50;99.90;;;;;;4987534;28;20216;-79
2021/08/26 06:50:12;;;;;;;6.88;1.70;;;16.50;99.90;;;;;;4988375;28;20246;-80
2021/08/26 06:52:40;;;;;;;7.25;2.17;;;16.50;99.90;;;;;;4986868;28;20216;-78
2021/08/26 06:55:07;;;;;;;12.35;2.47;;;16.50;99.90;;;;;;4987804;28;20210;-79
2021/08/26 06:57:34;;;;;;;8.63;2.57;;;16.50;99.90;;;;;;4988809;28;20764;-86
2021/08/26 07:00:01;;;;;;;9.23;2.70;;;16.50;99.90;;;;;;4987134;28;20589;-93
2021/08/26 07:02:28;;;;;;;7.78;2.22;;;16.50;99.90;;;;;;4987746;28;20203;-85
2021/08/26 07:04:55;;;;;;;9.15;2.45;;;16.50;99.90;;;;;;4986331;28;20216;-88
2021/08/26 07:07:21;;;;;;;17.58;3.10;;;16.60;99.90;;;;;;4987234;28;20286;-78
2021/08/26 07:09:49;;;;;;;9.20;2.40;;;16.60;99.90;;;;;;4987175;28;20219;-79
2021/08/26 07:12:16;;;;;;;9.25;2.05;;;16.60;99.90;;;;;;4988249;28;20211;-79
2021/08/26 07:14:43;;;;;;;8.55;2.17;;;16.70;99.90;;;;;;4987206;28;20212;-77
2021/08/26 07:17:10;;;;;;;9.97;2.23;;;16.70;99.90;;;;;;4987960;28;20200;-86
2021/08/26 07:19:37;;;;;;;8.45;2.17;;;16.80;99.90;;;;;;4987268;28;20214;-78
2021/08/26 07:22:04;;;;;;;8.70;2.23;;;16.80;99.90;;;;;;4988311;28;20532;-76
2021/08/26 07:24:31;;;;;;;7.53;2.10;;;16.90;99.90;;;;;;4988572;28;20289;-86
2021/08/26 07:26:59;;;;;;;6.85;2.38;;;17.00;99.90;;;;;;4987611;28;20298;-85
2021/08/26 07:29:26;;;;;;;7.22;2.70;;;17.10;99.90;;;;;;4988871;28;20208;-83
2021/08/26 07:31:52;;;;;;;11.05;2.40;;;17.20;99.90;;;;;;4987857;28;20239;-86
2021/08/26 07:34:19;;;;;;;7.60;2.50;;;17.30;99.90;;;;;;4987973;28;20548;-83
2021/08/26 07:36:46;;;;;;;12.25;2.85;;;17.40;99.90;;;;;;4992699;28;20214;-80
2021/08/26 07:39:12;;;;;;;8.93;2.67;;;17.50;99.90;;;;;;5025047;28;20279;-88
2021/08/26 07:41:39;;;;;;;9.55;2.50;;;17.60;99.90;;;;;;5027315;28;20226;-81
2021/08/26 07:44:07;;;;;;;5.38;2.30;;;17.60;99.90;;;;;;5027196;28;20203;-80
2021/08/26 07:46:34;;;;;;;10.85;3.53;;;17.60;99.90;;;;;;5013640;28;20265;-78
2021/08/26 07:49:01;;;;;;;7.63;2.53;;;17.70;99.90;;;;;;4987051;28;20207;-78
2021/08/26 07:51:28;;;;;;;11.05;2.63;;;17.70;99.90;;;;;;4989588;28;20239;-90
2021/08/26 07:53:55;;;;;;;12.00;3.33;;;17.60;99.90;;;;;;4994758;28;20203;-85
2021/08/26 07:56:21;;;;;;;10.00;2.90;;;17.60;99.90;;;;;;4989833;28;20219;-89
2021/08/26 07:58:48;;;;;;;11.55;2.63;;;17.60;99.90;;;;;;4988797;28;20200;-88
2021/08/26 08:01:16;;;;;;;11.93;3.20;;;17.40;99.90;;;;;;4989944;28;20200;-80
2021/08/26 08:03:43;;;;;;;9.18;3.38;;;17.30;99.90;;;;;;4990348;28;20204;-83
2021/08/26 08:06:11;;;;;;;9.32;3.03;;;17.20;99.90;;;;;;4987040;28;20274;-87
2021/08/26 08:08:38;;;;;;;8.63;2.80;;;17.10;99.90;;;;;;4985955;28;20203;-81
2021/08/26 08:11:04;;;;;;;9.38;3.10;;;17.10;99.90;;;;;;4987542;28;20236;-87
2021/08/26 08:13:31;;;;;;;11.38;3.75;;;17.20;99.90;;;;;;4986081;28;20942;-80
2021/08/26 08:16:00;;;;;;;7.13;2.90;;;17.30;99.90;;;;;;4995816;28;20215;-81
2021/08/26 08:18:28;;;;;;;6.20;3.03;;;17.40;99.90;;;;;;5009301;28;20289;-79
2021/08/26 08:20:55;;;;;;;11.25;3.92;;;17.50;99.90;;;;;;5009583;28;20203;-80
2021/08/26 08:23:22;;;;;;;11.10;3.00;;;17.70;99.90;;;;;;5009142;28;20219;-79
2021/08/26 08:25:49;;;;;;;10.65;3.35;;;17.70;99.90;;;;;;4990395;28;20238;-84
2021/08/26 08:28:17;;;;;;;11.07;3.47;;;17.80;99.90;;;;;;4990123;28;20200;-80
2021/08/26 08:30:45;;;;;;;15.02;4.80;;;17.90;99.90;;;;;;4989384;28;20232;-79
2021/08/26 08:33:12;;;;;;;9.77;4.00;;;17.90;99.90;;;;;;4989206;28;20600;-79
2021/08/26 08:35:40;;;;;;;11.80;3.63;;;17.90;99.90;;;;;;4990412;28;20215;-81
2021/08/26 08:38:07;;;;;;;11.30;3.72;;;18.00;99.90;;;;;;4989284;28;20203;-83
2021/08/26 08:40:34;;;;;;;9.88;3.58;;;18.00;99.90;;;;;;4990115;28;20223;-78
2021/08/26 08:43:01;;;;;;;10.18;3.53;;;18.00;99.90;;;;;;4989711;28;20248;-86
2021/08/26 08:45:28;;;;;;;12.80;3.38;;;17.90;99.90;;;;;;4990928;28;20219;-88
2021/08/26 08:47:57;;;;;;;9.38;4.03;;;17.90;99.90;;;;;;4990156;28;20215;-79
2021/08/26 08:50:26;;;;;;;8.23;3.08;;;17.90;99.90;;;;;;4989844;28;20216;-90
2021/08/26 08:52:55;;;;;;;11.23;3.75;;;17.90;99.90;;;;;;4989380;28;20208;-89
2021/08/26 08:55:22;;;;;;;9.13;3.53;;;17.90;99.90;;;;;;4990460;28;20212;-90
2021/08/26 08:57:49;;;;;;;10.13;3.55;;;17.90;99.90;;;;;;4988451;28;20212;-81
2021/08/26 09:00:18;;;;;;;9.25;3.45;;;17.90;99.90;;;;;;4990922;28;20581;-81
2021/08/26 09:02:45;;;;;;;8.77;3.10;;;17.90;99.90;;;;;;4991588;28;20204;-92
2021/08/26 09:05:12;;;;;;;9.80;3.17;;;18.00;99.90;;;;;;4991136;28;20223;-80
2021/08/26 09:07:39;;;;;;;12.73;4.05;;;18.10;99.90;;;;;;4989973;28;20223;-80
2021/08/26 09:10:09;;;;;;;7.38;3.45;;;18.20;99.90;;;;;;4989434;28;20212;-80
2021/08/26 09:12:51;;;;;;;7.75;3.17;;;18.20;99.90;;;;;;4988594;28;20243;-84
2021/08/26 09:15:20;;;;;;;11.57;3.60;;;18.30;99.90;;;;;;4988617;28;20671;-80
2021/08/26 09:17:48;;;;;;;11.70;3.80;;;18.30;99.90;;;;;;4991746;28;20215;-81
2021/08/26 09:20:17;;;;;;;16.83;4.72;;;18.30;99.90;;;;;;4996120;28;20216;-86
2021/08/26 09:22:44;;;;;;;12.88;3.53;;;18.20;99.90;;;;;;4991284;28;20200;-81
2021/08/26 09:25:14;;;;;;;11.13;4.13;;;18.20;99.90;;;;;;4992486;28;20196;-87
2021/08/26 09:27:44;;;;;;;13.40;4.20;;;18.20;99.90;;;;;;4992392;28;20290;-87
2021/08/26 09:30:14;;;;;;;12.23;4.50;;;18.10;99.90;;;;;;4993231;28;20250;-85
2021/08/26 09:32:43;;;;;;;10.38;4.35;;;18.10;99.90;;;;;;4990953;28;20228;-87
2021/08/26 09:35:18;;;;;;;16.88;4.38;;;18.20;99.90;;;;;;4991390;28;20305;-79
2021/08/26 09:37:49;;;;;;;14.45;4.32;;;18.20;99.90;;;;;;5010921;28;20195;-82
2021/08/26 09:40:18;;;;;;;13.25;4.32;;;18.20;99.90;;;;;;5010366;28;20199;-81
2021/08/26 09:42:54;;;;;;;17.05;4.57;;;18.30;99.90;;;;;;5009632;28;20908;-82
2021/08/26 09:45:23;;;;;;;12.18;4.35;;;18.40;99.90;;;;;;4999064;28;20196;-79
2021/08/26 09:48:07;;;;;;;14.75;4.90;;;18.50;99.90;;;;;;4989931;28;20215;-77
2021/08/26 09:50:39;;;;;;;18.90;5.60;;;18.60;99.90;;;;;;4992546;28;20235;-84
2021/08/26 09:53:07;;;;;;;10.95;4.47;;;18.70;99.90;;;;;;4997679;28;20200;-81
2021/08/26 09:55:55;;;;;;;14.80;4.55;;;18.70;99.90;;;;;;5000330;28;20678;-82
2021/08/26 09:58:23;;;;;;;12.45;4.15;;;18.70;99.90;;;;;;4995103;28;20211;-79
2021/08/26 10:01:03;;;;;;;14.95;4.05;;;18.60;99.90;;;;;;4993542;28;20216;-87
2021/08/26 10:03:31;;;;;;;13.15;4.05;;;18.60;99.90;;;;;;4994288;28;20207;-85
2021/08/26 10:05:59;;;;;;;12.70;3.90;;;18.50;99.90;;;;;;4991656;28;20196;-83
2021/08/26 10:08:26;;;;;;;10.77;3.60;;;18.50;99.90;;;;;;4990704;28;20200;-90
2021/08/26 10:10:55;;;;;;;11.55;3.40;;;18.50;99.90;;;;;;5007771;28;20658;-86
2021/08/26 10:13:22;;;;;;;8.52;2.95;;;18.50;99.90;;;;;;5010323;28;20488;-91
2021/08/26 10:15:49;;;;;;;8.65;3.10;;;18.50;99.90;;;;;;5010642;28;20615;-87
2021/08/26 10:18:17;;;;;;;10.75;3.22;;;18.60;99.90;;;;;;4991039;28;20227;-90
2021/08/26 10:20:44;;;;;;;11.43;3.88;;;18.70;99.90;;;;;;4992330;28;20207;-78
2021/08/26 10:23:12;;;;;;;11.65;3.42;;;18.70;99.90;;;;;;5007906;28;20615;-80
2021/08/26 10:25:40;;;;;;;11.63;3.45;;;18.60;99.90;;;;;;5011461;28;20211;-83
2021/08/26 10:28:09;;;;;;;16.38;4.07;;;18.70;99.90;;;;;;5001461;28;20215;-80
2021/08/26 10:30:38;;;;;;;12.75;3.53;;;18.80;99.90;;;;;;4988078;28;20207;-86
2021/08/26 10:33:06;;;;;;;9.95;3.10;;;18.80;99.90;;;;;;4988280;28;20829;-87
2021/08/26 10:35:33;;;;;;;15.82;4.00;;;18.90;99.90;;;;;;4989558;28;20208;-87
2021/08/26 10:38:00;;;;;;;13.52;4.57;;;19.00;99.90;;;;;;4990388;28;20226;-77
2021/08/26 10:40:32;;;;;;;14.95;3.80;;;19.20;99.90;;;;;;4990748;28;20785;-92
2021/08/26 10:42:59;;;;;;;10.10;3.60;;;19.20;99.90;;;;;;4989867;28;20236;-89
2021/08/26 10:45:30;;;;;;;9.45;3.80;;;19.30;99.90;;;;;;4991897;28;20219;-83
2021/08/26 10:48:14;;;;;;;12.50;3.92;;;19.40;99.90;;;;;;4990646;28;20294;-77
2021/08/26 10:50:43;;;;;;;13.63;4.40;;;19.40;99.90;;;;;;4989672;28;20224;-83
2021/08/26 10:53:14;;;;;;;16.77;4.95;;;19.50;99.90;;;;;;4992317;28;20227;-92
2021/08/26 10:55:43;;;;;;;15.40;4.70;;;19.60;99.90;;;;;;5009151;28;20297;-78
2021/08/26 10:58:36;;;;;;;15.15;4.72;;;19.60;99.90;;;;;;5008669;28;20550;-79
2021/08/26 11:01:05;;;;;;;19.42;4.57;;;19.60;99.90;;;;;;5010474;28;20215;-80
2021/08/26 11:03:52;;;;;;;20.17;4.78;;;19.60;99.90;;;;;;5010343;28;20222;-79
2021/08/26 11:06:34;;;;;;;17.65;4.53;;;19.60;99.90;;;;;;5009498;28;20209;-90
2021/08/26 11:09:28;;;;;;;14.55;4.90;;;19.50;99.90;;;;;;5005821;28;20207;-89
2021/08/26 11:11:59;;;;;;;18.80;5.20;;;19.50;99.90;;;;;;5003953;28;20254;-87
2021/08/26 11:14:28;;;;;;;17.98;5.00;;;19.50;99.90;;;;;;4989048;28;20207;-92
2021/08/26 11:16:57;;;;;;;20.92;5.18;;;19.50;99.90;;;;;;4990407;28;20315;-91
2021/08/26 11:19:29;;;;;;;15.10;4.63;;;19.50;99.90;;;;;;4989147;28;20298;-92
2021/08/26 11:22:06;;;;;;;17.02;4.63;;;19.50;99.90;;;;;;4989118;28;20206;-90
2021/08/26 11:24:58;;;;;;;13.20;5.07;;;19.60;99.90;;;;;;4989460;28;20218;-87
2021/08/26 11:27:32;;;;;;;10.95;3.95;;;19.60;99.90;;;;;;4970010;28;20203;-90
2021/08/26 11:30:14;;;;;;;14.32;3.30;;;19.60;99.90;;;;;;4988647;28;20211;-87
2021/08/26 11:32:43;;;;;;;9.63;2.97;;;19.70;99.90;;;;;;4988236;28;20227;-86
2021/08/26 11:35:09;;;;;;;13.70;3.63;;;19.70;99.90;;;;;;4988965;28;20207;-88
2021/08/26 11:37:37;;;;;;;8.45;3.30;;;19.80;99.90;;;;;;4987366;28;20219;-79
2021/08/26 11:40:07;;;;;;;14.52;4.15;;;20.00;99.90;;;;;;4986125;28;20548;-87
2021/08/26 11:42:36;;;;;;;11.05;3.47;;;20.00;99.90;;;;;;4985001;28;20950;-89
2021/08/26 11:45:09;;;;;;;17.55;4.60;;;20.10;99.90;;;;;;4985952;28;20216;-90
2021/08/26 11:47:37;;;;;;;15.95;5.32;;;20.00;99.90;;;;;;4984948;28;20230;-85
2021/08/26 11:50:17;;;;;;;23.27;5.93;;;20.00;99.90;;;;;;4993216;28;20227;-81
2021/08/26 11:52:45;;;;;;;12.65;4.72;;;20.00;99.90;;;;;;5013151;28;20705;-87
2021/08/26 11:55:12;;;;;;;12.98;4.32;;;20.10;99.90;;;;;;5012634;28;20211;-81
2021/08/26 11:57:39;;;;;;;13.93;3.97;;;20.20;99.90;;;;;;5012578;28;20207;-82
2021/08/26 12:00:08;;;;;;;14.07;3.58;;;20.20;99.90;;;;;;5014471;28;20207;-88
2021/08/26 12:02:36;;;;;;;16.42;4.30;;;20.10;99.90;;;;;;5013792;28;20215;-79
2021/08/26 12:05:08;;;;;;;14.82;4.57;;;20.20;99.90;;;;;;5013540;28;20203;-89
2021/08/26 12:07:38;;;;;;;9.68;3.22;;;20.30;99.90;;;;;;5013889;28;20226;-86
2021/08/26 12:10:11;;;;;;;11.48;3.28;;;20.40;99.90;;;;;;5004239;28;20212;-89
2021/08/26 12:12:48;;;;;;;8.93;3.22;;;20.50;99.90;;;;;;4993100;28;20231;-89
2021/08/26 12:15:23;;;;;;;12.10;4.28;;;20.40;99.90;;;;;;4993798;28;20200;-83
2021/08/26 12:17:51;;;;;;;10.38;3.70;;;20.40;99.90;;;;;;4994153;28;20558;-87
2021/08/26 12:20:18;;;;;;;12.70;3.90;;;20.30;99.90;;;;;;4993472;28;20208;-89
2021/08/26 12:22:48;;;;;;;14.32;4.20;;;20.40;99.90;;;;;;4994649;28;20206;-88
2021/08/26 12:25:21;;;;;;;14.60;4.72;;;20.30;99.90;;;;;;4993869;28;20208;-88
2021/08/26 12:27:51;;;;;;;16.33;4.60;;;20.40;99.90;;;;;;4993205;28;20207;-88
2021/08/26 12:30:27;;;;;;;16.02;4.90;;;20.40;99.90;;;;;;4993174;28;20214;-85
2021/08/26 12:33:06;;;;;;;10.73;4.45;;;20.50;99.90;;;;;;4993596;28;20239;-86
2021/08/26 12:35:41;;;;;;;19.70;5.35;;;20.50;99.90;;;;;;4993027;28;20215;-90
2021/08/26 12:38:09;;;;;;;14.60;5.00;;;20.30;99.90;;;;;;4992299;28;20229;-92
2021/08/26 12:40:52;;;;;;;13.23;5.15;;;20.20;99.90;;;;;;4992564;28;20200;-83
2021/08/26 12:43:20;;;;;;;20.20;6.13;;;20.20;99.90;;;;;;4992543;28;20231;-84
2021/08/26 12:45:47;;;;;;;21.35;5.30;;;20.20;99.90;;;;;;4991984;28;20223;-93
2021/08/26 12:48:25;;;;;;;18.65;5.07;;;20.20;99.90;;;;;;4992595;28;20208;-92
2021/08/26 12:51:17;;;;;;;21.30;5.47;;;20.30;99.90;;;;;;4990295;28;20231;-96
2021/08/26 12:53:48;;;;;;;19.38;5.28;;;20.30;99.90;;;;;;4987203;28;20227;-80